createdAt,value
2023-06-08T00:03:12.036Z,8.57190635451505
2023-06-08T00:13:54.146Z,9.036789297658864
2023-06-08T00:20:13.072Z,9.414715719063546
2023-06-08T00:40:27.595Z,11.020066889632107
2023-06-08T00:46:46.500Z,10.66220735785953
2023-06-08T00:53:05.520Z,10.866220735785953
2023-06-08T00:59:24.502Z,12.451505016722408
2023-06-08T01:05:44.110Z,12.76923076923077
2023-06-08T01:12:04.062Z,11.501672240802675
2023-06-08T01:18:23.685Z,10.719063545150501
2023-06-08T01:24:42.995Z,11.093645484949834
2023-06-08T01:39:29.334Z,11.150501672240802
2023-06-08T01:45:48.576Z,10.100334448160535
2023-06-08T01:52:10.458Z,11.381270903010034
2023-06-08T02:03:27.076Z,10.591973244147157
2023-06-08T02:09:46.549Z,10.454849498327759
2023-06-08T02:16:05.557Z,9.882943143812708
2023-06-08T02:22:25.398Z,9.732441471571907
2023-06-08T02:28:45.659Z,9.986622073578594
2023-06-08T02:40:16.410Z,9.518394648829432
2023-06-08T02:54:04.316Z,9.846153846153847
2023-06-08T03:04:17.606Z,9.892976588628763
2023-06-08T03:17:43.315Z,9.42809364548495
2023-06-08T03:24:02.997Z,9.62876254180602
2023-06-08T03:30:25.278Z,10.632107023411372
2023-06-08T03:36:46.835Z,12.19732441471572
2023-06-08T03:43:07.907Z,12.117056856187292
2023-06-08T03:49:35.266Z,11.354515050167224
2023-06-08T03:55:56.257Z,10.759197324414716
2023-06-08T04:02:19.227Z,10.816053511705686
2023-06-08T04:08:39.972Z,10.324414715719064
2023-06-08T04:15:07.511Z,9.551839464882944
2023-06-08T04:26:08.236Z,10.692307692307692
2023-06-08T04:33:32.542Z,11.274247491638796
2023-06-08T04:39:53.654Z,11.351170568561873
2023-06-08T04:46:15.675Z,13.488294314381271
2023-06-08T04:52:48.276Z,12.903010033444817
2023-06-08T05:07:36.779Z,14.461538461538462
2023-06-08T05:25:28.279Z,14.478260869565217
2023-06-08T05:33:06.646Z,12.806020066889632
2023-06-08T05:41:35.610Z,14.889632107023411
2023-06-08T05:55:25.376Z,11.518394648829432
2023-06-08T06:12:06.533Z,10.79598662207358
2023-06-08T06:18:28.723Z,10.719063545150501
2023-06-08T06:24:50.622Z,9.588628762541806
2023-06-08T06:31:14.095Z,9.117056856187292
2023-06-08T06:37:36.860Z,9.558528428093645
2023-06-08T06:44:57.425Z,9.551839464882944
2023-06-08T06:51:20.151Z,10.431438127090301
2023-06-08T06:57:42.874Z,9.157190635451505
2023-06-08T07:04:07.294Z,9.354515050167224
2023-06-08T07:10:30.331Z,8.471571906354516
2023-06-08T07:16:52.400Z,8.996655518394649
2023-06-08T07:23:44.472Z,8.923076923076923
2023-06-08T07:30:24.416Z,8.836120401337793
2023-06-08T07:36:47.722Z,8.923076923076923
2023-06-08T07:46:06.386Z,8.351170568561873
2023-06-08T07:52:29.989Z,8.31438127090301
2023-06-08T08:03:35.771Z,8.909698996655518
2023-06-08T08:09:59.300Z,7.668896321070235
2023-06-08T08:22:02.865Z,7.7157190635451505
2023-06-08T08:28:25.892Z,7.759197324414716
2023-06-08T08:34:48.782Z,7.518394648829432
2023-06-08T08:42:46.715Z,7.936454849498328
2023-06-08T08:49:09.486Z,7.775919732441472
2023-06-08T08:55:35.548Z,7.976588628762542
2023-06-08T09:02:00.313Z,7.8561872909699
2023-06-08T09:08:29.149Z,7.775919732441472
2023-06-08T09:14:52.652Z,8.120401337792643
2023-06-08T09:28:31.267Z,8.160535117056856
2023-06-08T09:37:54.374Z,7.936454849498328
2023-06-08T09:44:17.129Z,7.959866220735786
2023-06-08T09:50:40.415Z,7.377926421404682
2023-06-08T09:57:03.011Z,7.521739130434782
2023-06-08T10:10:30.714Z,7.695652173913044
2023-06-08T10:16:54.367Z,7.344481605351171
2023-06-08T10:23:17.424Z,7.391304347826087
2023-06-08T10:31:36.727Z,7.351170568561873
2023-06-08T10:41:56.220Z,7.2842809364548495
2023-06-08T10:48:19.772Z,7.826086956521739
2023-06-08T10:57:14.804Z,7.903010033444816
2023-06-08T11:03:40.451Z,8.210702341137123
2023-06-08T11:10:04.453Z,7.357859531772576
2023-06-08T11:16:27.153Z,8.060200668896321
2023-06-08T11:29:12.632Z,9.003344481605351
2023-06-08T11:35:36.186Z,7.993311036789297
2023-06-08T11:44:29.887Z,8.100334448160535
2023-06-08T11:50:53.204Z,8.531772575250836
2023-06-08T11:57:16.553Z,8.096989966555183
2023-06-08T12:10:20.632Z,8.551839464882944
2023-06-08T12:16:44.842Z,9.220735785953178
2023-06-08T12:23:08.631Z,9.418060200668897
2023-06-08T12:29:32.134Z,9.327759197324415
2023-06-08T12:35:55.282Z,9.939799331103679
2023-06-08T12:45:18.405Z,9.755852842809364
2023-06-08T12:51:43.235Z,10.19732441471572
2023-06-08T12:58:08.895Z,9.11371237458194
2023-06-08T13:04:32.837Z,9.635451505016722
2023-06-08T13:18:02.982Z,9.97324414715719
2023-06-08T13:24:26.146Z,10.17056856187291
2023-06-08T13:30:49.968Z,10.31772575250836
2023-06-08T13:42:23.258Z,9.217391304347826
2023-06-08T13:53:22.749Z,8.85953177257525
2023-06-08T14:00:20.337Z,9.578595317725753
2023-06-08T14:06:44.817Z,9.538461538461538
2023-06-08T14:22:03.143Z,9.020066889632107
2023-06-08T14:30:15.664Z,9.648829431438127
2023-06-08T14:36:39.512Z,9.989966555183946
2023-06-08T14:45:08.226Z,9.528428093645484
2023-06-08T14:51:38.204Z,9.568561872909699
2023-06-08T14:58:03.415Z,9.575250836120402
2023-06-08T15:10:00.452Z,10.02675585284281
2023-06-08T15:16:24.464Z,10.120401337792643
2023-06-08T15:22:47.526Z,11.377926421404682
2023-06-08T15:30:53.975Z,14.173913043478262
2023-06-08T15:38:10.530Z,12.267558528428093
2023-06-08T15:44:39.788Z,10.732441471571907
2023-06-08T15:51:02.080Z,10.638795986622073
2023-06-08T15:57:24.673Z,9.568561872909699
2023-06-08T16:11:51.172Z,9.602006688963211
2023-06-08T16:18:14.044Z,9.68561872909699
2023-06-08T16:24:36.824Z,9.270903010033445
2023-06-08T16:31:01.770Z,8.705685618729097
2023-06-08T16:37:25.067Z,9.411371237458194
2023-06-08T16:59:43.587Z,9.615384615384615
2023-06-08T17:06:06.180Z,13.234113712374581
2023-06-08T17:12:28.965Z,10.491638795986622
2023-06-08T17:18:51.556Z,7.648829431438127
2023-06-08T17:28:22.324Z,7.441471571906354
2023-06-08T17:34:45.207Z,6.846153846153846
2023-06-08T17:41:07.833Z,5.7725752508361206
2023-06-08T17:47:31.090Z,5.525083612040134
2023-06-08T17:53:55.486Z,5.645484949832776
2023-06-08T18:00:20.925Z,4.869565217391305
2023-06-08T18:06:43.906Z,4.806020066889632
2023-06-08T18:13:07.020Z,5.2274247491638794
2023-06-08T18:19:47.738Z,4.418060200668896
2023-06-08T18:27:33.757Z,3.682274247491639
2023-06-08T18:34:01.777Z,3.74247491638796
2023-06-08T18:45:49.776Z,3.301003344481605
2023-06-08T19:00:08.131Z,2.9866220735785953
2023-06-08T19:06:40.985Z,3.4381270903010033
2023-06-08T19:13:09.204Z,3.9364548494983276
2023-06-08T19:19:38.615Z,3.140468227424749
2023-06-08T19:26:10.873Z,3.7859531772575252
2023-06-08T19:36:09.194Z,3.3411371237458196
2023-06-08T19:42:34.321Z,2.899665551839465
2023-06-08T19:48:56.287Z,3.1638795986622075
2023-06-08T19:55:22.670Z,2.9866220735785953
2023-06-08T20:01:55.052Z,3.4347826086956523
2023-06-08T20:14:32.419Z,2.919732441471572
2023-06-08T20:20:58.928Z,2.882943143812709
2023-06-08T20:35:00.034Z,3.130434782608696
2023-06-08T20:41:24.720Z,2.923076923076923
2023-06-08T20:50:48.354Z,3.137123745819398
2023-06-08T20:57:13.585Z,2.612040133779264
2023-06-08T21:03:46.615Z,2.802675585284281
2023-06-08T21:13:19.118Z,2.7123745819397995
2023-06-08T21:19:47.367Z,3.4983277591973243
2023-06-08T21:26:14.454Z,4.254180602006689
2023-06-08T21:39:59.721Z,2.7123745819397995
2023-06-08T21:46:28.616Z,2.7558528428093645
2023-06-08T21:52:57.855Z,2.722408026755853
2023-06-08T21:59:21.860Z,3.297658862876254
2023-06-08T22:05:45.049Z,2.9966555183946486
2023-06-08T22:13:27.172Z,3.0
2023-06-08T22:20:07.459Z,3.0936454849498327
2023-06-08T22:26:30.517Z,3.719063545150502
2023-06-08T22:32:51.501Z,3.612040133779264
2023-06-08T22:39:11.926Z,3.1036789297658864
2023-06-08T22:47:16.654Z,3.6421404682274248
2023-06-08T22:53:37.823Z,3.0234113712374584
2023-06-08T22:59:58.408Z,3.2675585284280935
2023-06-08T23:10:19.062Z,4.438127090301004
2023-06-08T23:16:39.965Z,3.451505016722408
2023-06-08T23:27:36.230Z,3.317725752508361
2023-06-08T23:33:57.006Z,3.1237458193979935
2023-06-08T23:48:35.449Z,3.4849498327759196
2023-06-08T23:54:55.272Z,3.5016722408026757
